Time;durP1;ratioP1;P1;durP2;ratioP2;P2;SDS_P1;SDS_P2;PMS_P1;PMS_P2;Temp;Humidity;BMP_temperature;BMP_pressure;BME280_temperature;BME280_humidity;BME280_pressure;Samples;Min_cycle;Max_cycle;Signal;HPM_P1;HPM_P2
2023/08/29 00:01:47;;;;;;;3.47;1.75;;;14.10;99.90;;;;;;5019668;28;20084;-73
2023/08/29 00:04:14;;;;;;;;;;;14.10;99.90;;;;;;5015193;28;20164;-71
2023/08/29 00:06:40;;;;;;;5.38;2.05;;;14.10;99.90;;;;;;5019016;28;19917;-73
2023/08/29 00:09:06;;;;;;;4.50;2.15;;;14.10;99.90;;;;;;5004036;28;20102;-72
2023/08/29 00:11:32;;;;;;;4.35;2.10;;;14.00;99.90;;;;;;5003651;28;20041;-72
2023/08/29 00:13:57;;;;;;;4.90;2.10;;;14.00;99.90;;;;;;5024879;28;20404;-71
2023/08/29 00:16:23;;;;;;;5.07;2.13;;;14.00;99.90;;;;;;5022407;28;20072;-71
2023/08/29 00:18:49;;;;;;;5.68;2.08;;;14.00;99.90;;;;;;5018063;28;20408;-71
2023/08/29 00:21:15;;;;;;;4.45;2.17;;;14.00;99.90;;;;;;5018956;28;20056;-71
2023/08/29 00:23:41;;;;;;;5.40;2.08;;;13.90;99.90;;;;;;5020751;28;20057;-72
2023/08/29 00:26:07;;;;;;;3.65;2.08;;;14.00;99.90;;;;;;5016681;28;20062;-71
2023/08/29 00:28:32;;;;;;;3.53;2.15;;;13.90;99.90;;;;;;5005609;28;20094;-71
2023/08/29 00:30:58;;;;;;;4.22;2.15;;;14.00;99.90;;;;;;5022030;28;20106;-73
2023/08/29 00:33:24;;;;;;;3.83;2.58;;;14.00;99.90;;;;;;5002971;28;20041;-71
2023/08/29 00:35:50;;;;;;;4.57;2.33;;;14.00;99.90;;;;;;5022675;28;20061;-71
2023/08/29 00:38:15;;;;;;;6.22;2.38;;;14.00;99.90;;;;;;5011793;28;20051;-71
2023/08/29 00:40:41;;;;;;;4.72;2.30;;;14.00;99.90;;;;;;5022369;28;20443;-71
2023/08/29 00:43:07;;;;;;;5.10;1.98;;;14.00;99.90;;;;;;5021536;28;20053;-71
2023/08/29 00:45:40;;;;;;;4.28;1.95;;;14.00;99.90;;;;;;5018880;28;20618;-71
2023/08/29 00:48:08;;;;;;;3.38;2.13;;;13.90;99.90;;;;;;5023644;28;20050;-72
2023/08/29 00:50:34;;;;;;;4.13;2.50;;;14.00;99.90;;;;;;5023869;28;20053;-71
2023/08/29 00:53:04;;;;;;;5.20;2.60;;;14.00;99.90;;;;;;5020173;28;20054;-71
2023/08/29 00:55:35;;;;;;;6.38;2.25;;;14.00;99.90;;;;;;5024364;28;20041;-71
2023/08/29 00:58:04;;;;;;;5.10;2.20;;;14.00;99.90;;;;;;5017874;28;20341;-71
2023/08/29 01:00:31;;;;;;;5.43;2.50;;;14.00;99.90;;;;;;5019916;28;20041;-72
2023/08/29 01:02:58;;;;;;;3.38;2.08;;;14.00;99.90;;;;;;5019866;28;20990;-71
2023/08/29 01:05:24;;;;;;;3.70;2.40;;;13.90;99.90;;;;;;5016189;28;20057;-71
2023/08/29 01:07:52;;;;;;;4.60;2.42;;;13.90;99.90;;;;;;5021179;28;20033;-71
2023/08/29 01:10:32;;;;;;;3.60;2.20;;;13.90;99.90;;;;;;5014553;28;20133;-71
2023/08/29 01:13:10;;;;;;;4.70;2.65;;;14.00;99.90;;;;;;5019005;28;20067;-70
2023/08/29 01:15:36;;;;;;;6.00;2.40;;;14.00;99.90;;;;;;4999253;28;20093;-71
2023/08/29 01:18:04;;;;;;;4.93;2.28;;;14.00;99.90;;;;;;5019158;28;20063;-72
2023/08/29 01:20:31;;;;;;;8.30;2.53;;;14.00;99.90;;;;;;5018487;28;20095;-72
2023/08/29 01:23:03;;;;;;;5.75;2.40;;;14.00;99.90;;;;;;5019050;28;20045;-71
2023/08/29 01:25:40;;;;;;;3.42;2.03;;;14.10;99.90;;;;;;5008283;28;20049;-70
2023/08/29 01:28:06;;;;;;;;;;;14.00;99.90;;;;;;5012327;28;20550;-70
2023/08/29 01:30:33;;;;;;;4.07;2.20;;;14.00;99.90;;;;;;5019367;28;20445;-71
2023/08/29 01:33:03;;;;;;;4.47;2.25;;;14.00;99.90;;;;;;5012384;28;20130;-70
2023/08/29 01:35:29;;;;;;;3.78;2.25;;;13.90;99.90;;;;;;5021329;28;20037;-71
2023/08/29 01:37:54;;;;;;;4.15;2.50;;;13.90;99.90;;;;;;5016076;28;20030;-70
2023/08/29 01:40:20;;;;;;;3.95;2.38;;;13.80;99.90;;;;;;5013437;28;20095;-71
2023/08/29 01:42:46;;;;;;;5.35;2.53;;;13.80;99.90;;;;;;5012162;28;20589;-71
2023/08/29 01:45:12;;;;;;;4.68;2.28;;;13.80;99.90;;;;;;5011600;28;20044;-72
2023/08/29 01:47:38;;;;;;;2.90;1.83;;;13.80;99.90;;;;;;4997310;28;20085;-71
2023/08/29 01:50:05;;;;;;;3.63;2.10;;;13.80;99.90;;;;;;4995830;28;20579;-72
2023/08/29 01:52:31;;;;;;;3.75;2.28;;;13.80;99.90;;;;;;4997701;28;20033;-70
2023/08/29 01:54:58;;;;;;;4.85;2.40;;;13.80;99.90;;;;;;5011076;28;20057;-71
2023/08/29 01:57:26;;;;;;;3.17;1.90;;;13.70;99.90;;;;;;5015994;28;20518;-71
2023/08/29 01:59:53;;;;;;;3.97;2.22;;;13.70;99.90;;;;;;5010856;28;20103;-70
2023/08/29 02:02:20;;;;;;;5.43;2.78;;;13.70;99.90;;;;;;5017670;28;20118;-71
2023/08/29 02:04:45;;;;;;;3.70;2.00;;;13.70;99.90;;;;;;5018301;28;20563;-71
2023/08/29 02:07:11;;;;;;;4.15;2.28;;;13.70;99.90;;;;;;5011231;28;20042;-70
2023/08/29 02:09:47;;;;;;;5.88;2.42;;;13.70;99.90;;;;;;5017597;28;20045;-69
2023/08/29 02:12:13;;;;;;;5.47;2.10;;;13.70;99.90;;;;;;5039649;28;20045;-71
2023/08/29 02:14:41;;;;;;;4.10;2.22;;;13.60;99.90;;;;;;5027926;28;20056;-71
2023/08/29 02:17:06;;;;;;;3.53;2.28;;;13.60;99.90;;;;;;5025630;28;20052;-71
2023/08/29 02:19:32;;;;;;;4.13;2.38;;;13.60;99.90;;;;;;5026010;28;20038;-72
2023/08/29 02:21:58;;;;;;;6.38;2.22;;;13.50;99.90;;;;;;5028329;28;20127;-71
2023/08/29 02:24:23;;;;;;;4.55;2.42;;;13.50;99.90;;;;;;5026038;28;20071;-72
2023/08/29 02:26:49;;;;;;;3.35;1.90;;;13.50;99.90;;;;;;5038406;28;20077;-72
2023/08/29 02:29:14;;;;;;;4.40;1.90;;;13.40;99.90;;;;;;5029840;28;20048;-71
2023/08/29 02:31:43;;;;;;;3.95;2.13;;;13.40;99.90;;;;;;5037740;28;20309;-72
2023/08/29 02:34:08;;;;;;;3.35;2.00;;;13.30;99.90;;;;;;5044330;28;20735;-71
2023/08/29 02:36:34;;;;;;;3.77;2.00;;;13.30;99.90;;;;;;5025925;28;20045;-71
2023/08/29 02:39:00;;;;;;;3.83;2.17;;;13.20;99.90;;;;;;5026981;28;20300;-76
2023/08/29 02:41:25;;;;;;;4.10;2.20;;;13.20;99.90;;;;;;5026821;28;20351;-70
2023/08/29 02:43:51;;;;;;;3.93;2.27;;;13.20;99.90;;;;;;5014265;28;20278;-71
2023/08/29 02:46:19;;;;;;;7.05;2.25;;;13.10;99.90;;;;;;5039102;28;20253;-71
2023/08/29 02:48:45;;;;;;;4.28;2.50;;;13.10;99.90;;;;;;5040720;28;20052;-71
2023/08/29 02:51:11;;;;;;;4.00;2.25;;;13.10;99.90;;;;;;5022953;28;20045;-71
2023/08/29 02:53:36;;;;;;;4.75;2.58;;;13.10;99.90;;;;;;5030766;28;20051;-71
2023/08/29 02:56:02;;;;;;;4.83;2.30;;;13.10;99.90;;;;;;5010148;28;20036;-71
2023/08/29 02:58:28;;;;;;;4.30;1.90;;;13.00;99.90;;;;;;5031314;28;20464;-71
2023/08/29 03:00:57;;;;;;;3.88;1.90;;;13.00;99.90;;;;;;5035516;28;20048;-71
2023/08/29 03:03:23;;;;;;;5.28;2.17;;;13.00;99.90;;;;;;5025697;28;20226;-71
2023/08/29 03:05:55;;;;;;;4.03;1.90;;;12.90;99.90;;;;;;5040685;28;20132;-71
2023/08/29 03:08:21;;;;;;;2.85;1.48;;;12.90;99.90;;;;;;5025408;28;20347;-71
2023/08/29 03:10:47;;;;;;;2.72;1.67;;;12.80;99.90;;;;;;5022342;28;20033;-71
2023/08/29 03:13:13;;;;;;;;;;;12.80;99.90;;;;;;5028324;28;20494;-71
2023/08/29 03:15:40;;;;;;;3.50;1.50;;;12.70;99.90;;;;;;5025553;28;19921;-71
2023/08/29 03:18:06;;;;;;;3.17;1.73;;;12.70;99.90;;;;;;5020730;28;20037;-71
2023/08/29 03:20:32;;;;;;;4.25;1.70;;;12.60;99.90;;;;;;5030110;28;20479;-71
2023/08/29 03:22:58;;;;;;;3.70;1.80;;;12.60;99.90;;;;;;5044081;28;20061;-71
2023/08/29 03:25:24;;;;;;;3.00;1.67;;;12.60;99.90;;;;;;5044003;28;20478;-71
2023/08/29 03:27:49;;;;;;;3.55;2.15;;;12.60;99.90;;;;;;5030635;28;20055;-72
2023/08/29 03:30:15;;;;;;;3.38;1.75;;;12.60;99.90;;;;;;5039927;28;20052;-70
2023/08/29 03:32:41;;;;;;;4.47;1.83;;;12.60;99.90;;;;;;5023079;28;20095;-70
2023/08/29 03:35:07;;;;;;;3.63;1.60;;;12.60;99.90;;;;;;5026446;28;20076;-69
2023/08/29 03:37:33;;;;;;;2.83;1.45;;;12.50;99.90;;;;;;5045723;28;20290;-69
2023/08/29 03:39:59;;;;;;;2.60;1.67;;;12.50;99.90;;;;;;5022740;28;20128;-70
2023/08/29 03:42:25;;;;;;;3.53;1.77;;;12.50;99.90;;;;;;5004172;28;20460;-69
2023/08/29 03:44:50;;;;;;;3.90;1.88;;;12.50;99.90;;;;;;5027016;28;20047;-70
2023/08/29 03:47:17;;;;;;;4.10;2.08;;;12.40;99.90;;;;;;5028777;28;20037;-69
2023/08/29 03:49:43;;;;;;;4.43;2.00;;;12.40;99.90;;;;;;5026648;28;20384;-70
2023/08/29 03:52:09;;;;;;;2.58;1.40;;;12.40;99.90;;;;;;5025762;28;20040;-70
2023/08/29 03:54:34;;;;;;;3.07;1.83;;;12.40;99.90;;;;;;5025113;28;20048;-70
2023/08/29 03:57:00;;;;;;;3.47;1.53;;;12.40;99.90;;;;;;5028803;28;20286;-70
2023/08/29 03:59:26;;;;;;;3.70;1.67;;;12.30;99.90;;;;;;5024710;28;20033;-70
2023/08/29 04:01:51;;;;;;;3.10;1.70;;;12.30;99.90;;;;;;5046242;28;20041;-70
2023/08/29 04:04:17;;;;;;;3.45;1.60;;;12.30;99.90;;;;;;5032429;28;20508;-70
2023/08/29 04:06:42;;;;;;;3.13;1.43;;;12.30;99.90;;;;;;5010803;28;20144;-70
2023/08/29 04:09:10;;;;;;;3.10;1.60;;;12.30;99.90;;;;;;5024315;28;20513;-70
2023/08/29 04:11:36;;;;;;;4.22;1.92;;;12.30;99.90;;;;;;5029614;28;20068;-70
2023/08/29 04:14:01;;;;;;;3.08;1.95;;;12.20;99.90;;;;;;5033274;28;20047;-70
2023/08/29 04:16:27;;;;;;;3.20;1.83;;;12.20;99.90;;;;;;5020528;28;20202;-70
2023/08/29 04:18:53;;;;;;;3.17;1.38;;;12.20;99.90;;;;;;5028493;28;20477;-70
2023/08/29 04:21:21;;;;;;;4.03;2.03;;;12.20;99.90;;;;;;5012558;28;20041;-70
2023/08/29 04:23:47;;;;;;;4.72;1.60;;;12.20;99.90;;;;;;5032794;28;20375;-70
2023/08/29 04:26:12;;;;;;;2.95;1.80;;;12.10;99.90;;;;;;5043617;28;20083;-70
2023/08/29 04:28:38;;;;;;;3.43;1.80;;;12.10;99.90;;;;;;5027602;28;20056;-70
2023/08/29 04:31:11;;;;;;;4.10;1.77;;;12.10;99.90;;;;;;5026925;28;20293;-70
2023/08/29 04:33:37;;;;;;;3.30;1.73;;;12.10;99.90;;;;;;5026353;28;20294;-70
2023/08/29 04:36:05;;;;;;;2.90;1.83;;;12.10;99.90;;;;;;5011671;28;20048;-70
2023/08/29 04:38:31;;;;;;;4.80;1.90;;;12.10;99.90;;;;;;5028342;28;20041;-69
2023/08/29 04:40:57;;;;;;;2.67;1.75;;;12.20;99.90;;;;;;5030866;28;20226;-70
2023/08/29 04:43:23;;;;;;;4.10;2.20;;;12.20;99.90;;;;;;5029611;28;20507;-70
2023/08/29 04:45:51;;;;;;;4.00;2.03;;;12.30;99.90;;;;;;5025763;28;20480;-70
2023/08/29 04:48:17;;;;;;;6.40;1.90;;;12.30;99.90;;;;;;5041887;28;20347;-69
2023/08/29 04:50:46;;;;;;;2.67;1.67;;;12.40;99.90;;;;;;5021585;28;20044;-69
2023/08/29 04:53:12;;;;;;;2.75;1.58;;;12.40;99.90;;;;;;5042954;28;20618;-71
2023/08/29 04:55:40;;;;;;;2.90;1.52;;;12.30;99.90;;;;;;5028453;28;20056;-70
2023/08/29 04:58:06;;;;;;;3.58;1.80;;;12.40;99.90;;;;;;5028802;28;20035;-70
2023/08/29 05:00:32;;;;;;;4.43;2.00;;;12.30;99.90;;;;;;5021032;28;20041;-70
2023/08/29 05:02:57;;;;;;;3.43;1.93;;;12.30;99.90;;;;;;5012656;28;20647;-70
2023/08/29 05:05:23;;;;;;;3.40;1.92;;;12.40;99.90;;;;;;5026860;28;20162;-70
2023/08/29 05:07:49;;;;;;;3.88;2.70;;;12.40;99.90;;;;;;5028148;28;20151;-70
2023/08/29 05:10:14;;;;;;;4.45;2.00;;;12.40;99.90;;;;;;5006227;28;20128;-70
2023/08/29 05:12:41;;;;;;;3.83;2.08;;;12.40;99.90;;;;;;5009631;28;20052;-70
2023/08/29 05:15:07;;;;;;;;;;;12.50;99.90;;;;;;5027394;28;20063;-69
2023/08/29 05:17:33;;;;;;;4.85;1.75;;;12.50;99.90;;;;;;5030321;28;19921;-69
2023/08/29 05:19:58;;;;;;;3.28;2.05;;;12.50;99.90;;;;;;5020469;28;20037;-69
2023/08/29 05:22:24;;;;;;;3.13;1.80;;;12.50;99.90;;;;;;5022147;28;20036;-69
2023/08/29 05:24:50;;;;;;;4.30;1.87;;;12.60;99.90;;;;;;5026671;28;20696;-69
2023/08/29 05:27:15;;;;;;;3.63;1.90;;;12.60;99.90;;;;;;5040779;28;20505;-70
2023/08/29 05:29:41;;;;;;;4.00;1.83;;;12.60;99.90;;;;;;5023133;28;20544;-70
2023/08/29 05:32:07;;;;;;;3.47;1.80;;;12.60;99.90;;;;;;5037839;28;20338;-70
2023/08/29 05:34:33;;;;;;;5.57;2.25;;;12.70;99.90;;;;;;5026881;28;20036;-70
2023/08/29 05:36:58;;;;;;;3.47;2.20;;;12.70;99.90;;;;;;5042233;28;20048;-70
2023/08/29 05:39:24;;;;;;;3.53;2.20;;;12.80;99.90;;;;;;5022946;28;20282;-69
2023/08/29 05:41:50;;;;;;;3.95;2.22;;;12.80;99.90;;;;;;5025031;28;20254;-70
2023/08/29 05:44:16;;;;;;;5.40;2.17;;;12.80;99.90;;;;;;5023297;28;20497;-70
2023/08/29 05:46:42;;;;;;;6.27;1.93;;;12.90;99.90;;;;;;5023664;28;20124;-76
2023/08/29 05:49:08;;;;;;;3.95;2.00;;;12.90;99.90;;;;;;5025150;28;20698;-74
2023/08/29 05:51:33;;;;;;;5.40;2.17;;;13.00;99.90;;;;;;5029367;28;20052;-71
2023/08/29 05:54:00;;;;;;;3.00;1.67;;;13.00;99.90;;;;;;5045644;28;20140;-77
2023/08/29 05:56:25;;;;;;;3.25;1.90;;;13.10;99.90;;;;;;5024097;28;20320;-72
2023/08/29 05:58:51;;;;;;;6.38;1.77;;;13.10;99.90;;;;;;5041612;28;20129;-71
2023/08/29 06:01:17;;;;;;;2.73;1.40;;;13.20;99.90;;;;;;5026160;28;20076;-73
2023/08/29 06:03:45;;;;;;;3.50;1.38;;;13.30;99.90;;;;;;5007623;28;20041;-72
2023/08/29 06:06:11;;;;;;;3.53;1.80;;;13.30;99.90;;;;;;5026216;28;20051;-71
2023/08/29 06:08:36;;;;;;;2.42;1.60;;;13.40;99.90;;;;;;5023448;28;20125;-73
2023/08/29 06:11:03;;;;;;;8.82;2.00;;;13.40;99.90;;;;;;5021688;28;20037;-72
2023/08/29 06:13:29;;;;;;;2.85;1.63;;;13.50;99.90;;;;;;5045351;28;20451;-71
2023/08/29 06:15:55;;;;;;;3.05;1.75;;;13.60;99.90;;;;;;5002075;28;20109;-70
2023/08/29 06:18:21;;;;;;;2.45;1.50;;;13.60;99.90;;;;;;5026927;28;20131;-70
2023/08/29 06:20:46;;;;;;;2.90;1.67;;;13.70;99.90;;;;;;5025797;28;20049;-69
2023/08/29 06:23:13;;;;;;;2.60;1.35;;;13.70;99.90;;;;;;5024917;28;20208;-69
2023/08/29 06:25:41;;;;;;;3.45;1.50;;;13.80;99.90;;;;;;5013141;28;20048;-70
2023/08/29 06:28:07;;;;;;;3.15;1.58;;;13.80;99.90;;;;;;5025512;28;20482;-70
2023/08/29 06:30:35;;;;;;;2.10;1.20;;;13.90;99.90;;;;;;5042242;28;20052;-70
2023/08/29 06:33:01;;;;;;;2.83;1.63;;;14.00;99.90;;;;;;5026935;28;20077;-70
2023/08/29 06:35:26;;;;;;;3.30;1.45;;;14.00;99.90;;;;;;5027859;28;20643;-70
2023/08/29 06:37:54;;;;;;;5.03;1.60;;;14.10;99.90;;;;;;5023694;28;20045;-69
2023/08/29 06:40:20;;;;;;;2.88;1.70;;;14.20;99.90;;;;;;5027772;28;20055;-70
2023/08/29 06:42:46;;;;;;;4.88;1.85;;;14.20;99.90;;;;;;5029817;28;20036;-70
2023/08/29 06:45:12;;;;;;;3.50;1.55;;;14.30;99.90;;;;;;5028979;28;20045;-70
2023/08/29 06:47:38;;;;;;;2.45;1.10;;;14.40;99.90;;;;;;5043412;28;20033;-70
2023/08/29 06:50:04;;;;;;;4.40;1.40;;;14.40;99.90;;;;;;5046711;28;20040;-75
2023/08/29 06:52:29;;;;;;;2.92;1.85;;;14.50;99.90;;;;;;5026868;28;20168;-70
2023/08/29 06:54:55;;;;;;;4.20;1.67;;;14.60;99.90;;;;;;5027538;28;20041;-70
2023/08/29 06:57:21;;;;;;;2.00;1.40;;;14.70;99.90;;;;;;5043872;28;20038;-70
2023/08/29 06:59:46;;;;;;;3.40;1.77;;;14.70;99.90;;;;;;5028050;28;20046;-70
2023/08/29 07:02:12;;;;;;;4.50;2.00;;;14.80;99.90;;;;;;5030692;28;20033;-70
2023/08/29 07:04:37;;;;;;;2.63;1.40;;;14.90;99.90;;;;;;5029935;28;20052;-70
2023/08/29 07:07:03;;;;;;;2.97;1.60;;;15.00;99.90;;;;;;5047022;28;20437;-71
2023/08/29 07:09:30;;;;;;;3.53;1.70;;;15.10;99.90;;;;;;5044750;28;20041;-70
2023/08/29 07:11:56;;;;;;;2.70;1.52;;;15.20;99.90;;;;;;5030528;28;20041;-70
2023/08/29 07:14:22;;;;;;;1.95;1.25;;;15.30;99.90;;;;;;5013121;28;20400;-70
2023/08/29 07:16:48;;;;;;;2.28;1.27;;;15.40;99.90;;;;;;5027566;28;20130;-70
2023/08/29 07:19:13;;;;;;;4.07;2.08;;;15.50;99.90;;;;;;5047654;28;20037;-70
2023/08/29 07:21:40;;;;;;;3.20;1.42;;;15.60;99.90;;;;;;5010404;28;20033;-72
2023/08/29 07:24:06;;;;;;;3.05;1.10;;;15.70;99.90;;;;;;5030385;28;20072;-70
2023/08/29 07:26:31;;;;;;;1.70;0.90;;;15.80;99.90;;;;;;5027277;28;20116;-70
2023/08/29 07:28:57;;;;;;;1.88;0.95;;;15.90;99.90;;;;;;5030722;28;20120;-70
2023/08/29 07:31:22;;;;;;;3.15;1.00;;;15.90;99.90;;;;;;5028987;28;20060;-70
2023/08/29 07:33:48;;;;;;;1.88;1.10;;;16.00;99.90;;;;;;5030420;28;20482;-70
2023/08/29 07:36:15;;;;;;;1.92;1.30;;;16.10;99.90;;;;;;5048589;28;20537;-70
2023/08/29 07:38:41;;;;;;;2.00;1.30;;;16.20;99.90;;;;;;5029746;28;20045;-70
2023/08/29 07:41:06;;;;;;;4.78;1.60;;;16.30;99.90;;;;;;5029408;28;20033;-71
2023/08/29 07:43:32;;;;;;;3.22;1.00;;;16.30;99.90;;;;;;5052346;28;20487;-70
2023/08/29 07:45:58;;;;;;;1.45;0.90;;;16.40;99.90;;;;;;5050457;28;20432;-70
2023/08/29 07:48:24;;;;;;;1.40;0.80;;;16.50;99.90;;;;;;5027901;28;20056;-70
2023/08/29 07:50:50;;;;;;;2.05;1.00;;;16.60;99.90;;;;;;5028230;28;20451;-70
2023/08/29 07:53:15;;;;;;;2.20;0.80;;;16.60;99.90;;;;;;5047635;28;20107;-70
2023/08/29 07:55:41;;;;;;;1.70;0.90;;;16.60;99.90;;;;;;5028676;28;20033;-69
2023/08/29 07:58:07;;;;;;;1.10;0.70;;;16.80;99.90;;;;;;5038123;28;20469;-70
2023/08/29 08:00:33;;;;;;;1.48;0.75;;;16.80;99.90;;;;;;5031365;28;20402;-70
2023/08/29 08:03:00;;;;;;;1.25;0.50;;;16.90;99.90;;;;;;5033623;28;20063;-71
2023/08/29 08:05:26;;;;;;;;;;;17.00;99.90;;;;;;5030172;28;20144;-69
2023/08/29 08:07:52;;;;;;;2.10;0.63;;;17.00;99.90;;;;;;5021425;28;20390;-69
2023/08/29 08:10:19;;;;;;;0.70;0.40;;;17.10;99.90;;;;;;5013736;28;20049;-70
2023/08/29 08:12:47;;;;;;;1.02;0.45;;;17.10;99.90;;;;;;5034133;28;20053;-69
2023/08/29 08:15:12;;;;;;;1.40;0.45;;;17.10;99.90;;;;;;5031352;28;20129;-70
2023/08/29 08:17:38;;;;;;;1.20;0.57;;;17.20;99.90;;;;;;5012970;28;20562;-69
2023/08/29 08:20:08;;;;;;;2.28;0.85;;;17.20;99.90;;;;;;5022599;28;20053;-69
2023/08/29 08:22:34;;;;;;;1.52;0.73;;;17.30;99.90;;;;;;5028124;28;20132;-70
2023/08/29 08:25:00;;;;;;;1.60;0.60;;;17.40;99.90;;;;;;5029553;28;20056;-70
2023/08/29 08:27:26;;;;;;;1.13;0.60;;;17.40;99.90;;;;;;5029501;28;20053;-69
2023/08/29 08:29:51;;;;;;;1.80;0.60;;;17.50;99.90;;;;;;5030778;28;20037;-70
2023/08/29 08:32:17;;;;;;;2.83;0.77;;;17.50;99.90;;;;;;5051273;28;20036;-69
2023/08/29 08:34:43;;;;;;;2.33;1.13;;;17.50;99.90;;;;;;5022951;28;20045;-70
2023/08/29 08:37:08;;;;;;;2.55;0.85;;;17.50;99.90;;;;;;5031430;28;20040;-70
2023/08/29 08:39:34;;;;;;;3.05;1.00;;;17.50;99.90;;;;;;5029443;28;20390;-69
2023/08/29 08:42:02;;;;;;;2.30;1.08;;;17.50;99.90;;;;;;5032885;28;20036;-70
2023/08/29 08:44:32;;;;;;;1.27;0.75;;;17.50;99.90;;;;;;5027026;28;20055;-70
2023/08/29 08:46:59;;;;;;;1.95;1.25;;;17.60;99.90;;;;;;5026873;28;20128;-70
2023/08/29 08:49:28;;;;;;;2.72;1.50;;;17.60;99.90;;;;;;5029980;28;20052;-70
2023/08/29 08:51:55;;;;;;;4.53;1.50;;;17.60;99.90;;;;;;5046374;28;20032;-70
2023/08/29 08:54:21;;;;;;;2.08;1.30;;;17.60;99.90;;;;;;5029566;28;20518;-70
2023/08/29 08:56:47;;;;;;;6.43;1.40;;;17.60;99.90;;;;;;5029405;28;20068;-70
2023/08/29 08:59:13;;;;;;;3.30;1.55;;;17.60;99.90;;;;;;5032494;28;20410;-70
2023/08/29 09:01:39;;;;;;;2.17;1.20;;;17.60;99.90;;;;;;5029168;28;20033;-70
2023/08/29 09:04:05;;;;;;;3.47;1.58;;;17.60;99.90;;;;;;5029287;28;20048;-70
2023/08/29 09:06:31;;;;;;;2.92;1.30;;;17.60;99.90;;;;;;5054003;28;20040;-70
2023/08/29 09:08:57;;;;;;;3.40;1.48;;;17.60;99.90;;;;;;5050699;28;20125;-70
2023/08/29 09:11:23;;;;;;;2.53;1.35;;;17.60;99.90;;;;;;5024670;28;20106;-70
2023/08/29 09:13:48;;;;;;;2.78;1.20;;;17.60;99.90;;;;;;5038056;28;20268;-70
2023/08/29 09:16:16;;;;;;;2.03;1.20;;;17.60;99.90;;;;;;5045727;28;20498;-70
2023/08/29 09:18:49;;;;;;;2.00;1.17;;;17.70;99.90;;;;;;5030155;28;20045;-70
2023/08/29 09:21:21;;;;;;;2.13;1.08;;;17.70;99.90;;;;;;5042612;28;20110;-70
2023/08/29 09:23:47;;;;;;;1.90;1.35;;;17.70;99.90;;;;;;5028955;28;20045;-70
2023/08/29 09:26:13;;;;;;;2.28;1.30;;;17.80;99.90;;;;;;5026345;28;20105;-71
2023/08/29 09:28:39;;;;;;;3.65;1.67;;;17.80;99.90;;;;;;5027260;28;20049;-70
2023/08/29 09:31:05;;;;;;;;;;;17.90;99.90;;;;;;5017618;28;20444;-69
2023/08/29 09:33:32;;;;;;;2.37;1.40;;;17.90;99.90;;;;;;5045782;28;19987;-69
2023/08/29 09:36:01;;;;;;;3.10;1.10;;;17.90;99.90;;;;;;5024809;28;20621;-69
2023/08/29 09:38:34;;;;;;;3.78;1.30;;;18.00;99.90;;;;;;5029454;28;20480;-69
2023/08/29 09:41:00;;;;;;;2.75;1.50;;;18.10;99.90;;;;;;5032360;28;20106;-68
2023/08/29 09:43:30;;;;;;;2.20;1.42;;;18.10;99.90;;;;;;5026411;28;20060;-69
2023/08/29 09:45:56;;;;;;;3.92;1.58;;;18.20;99.90;;;;;;5030143;28;20045;-69
2023/08/29 09:48:23;;;;;;;1.98;1.27;;;18.30;99.90;;;;;;5045505;28;20037;-69
2023/08/29 09:50:50;;;;;;;4.10;1.63;;;18.30;99.90;;;;;;5028915;28;20120;-69
2023/08/29 09:53:18;;;;;;;2.53;1.20;;;18.30;99.90;;;;;;5028159;28;20582;-70
2023/08/29 09:56:10;;;;;;;2.78;1.40;;;18.30;99.90;;;;;;5028070;28;20033;-68
2023/08/29 09:58:38;;;;;;;2.55;1.50;;;18.40;99.90;;;;;;5028125;28;20055;-69
2023/08/29 10:01:07;;;;;;;2.60;1.23;;;18.40;99.90;;;;;;5046300;28;20283;-69
2023/08/29 10:03:34;;;;;;;2.70;1.45;;;18.40;99.90;;;;;;5010363;28;20045;-70
2023/08/29 10:06:05;;;;;;;2.58;1.50;;;18.50;99.90;;;;;;5028831;28;20041;-69
2023/08/29 10:08:43;;;;;;;3.05;1.70;;;18.50;99.90;;;;;;5025002;28;20458;-70
2023/08/29 10:11:09;;;;;;;2.10;1.30;;;18.50;99.90;;;;;;5029744;28;20040;-70
2023/08/29 10:13:36;;;;;;;2.85;1.48;;;18.50;99.90;;;;;;5034475;28;20048;-69
2023/08/29 10:16:03;;;;;;;2.13;1.40;;;18.50;99.90;;;;;;5023949;28;20103;-70
2023/08/29 10:18:30;;;;;;;2.50;1.30;;;18.50;99.90;;;;;;5009421;28;20613;-69
2023/08/29 10:20:56;;;;;;;4.10;1.30;;;18.40;99.90;;;;;;5028650;28;20136;-70
2023/08/29 10:23:23;;;;;;;3.15;0.98;;;18.40;99.90;;;;;;5029932;28;20127;-70
2023/08/29 10:25:49;;;;;;;2.28;1.27;;;18.40;99.90;;;;;;5027624;28;20072;-70
2023/08/29 10:28:16;;;;;;;3.35;1.60;;;18.40;99.90;;;;;;5010722;28;20045;-70
2023/08/29 10:30:48;;;;;;;2.30;1.55;;;18.40;99.90;;;;;;5027901;28;20124;-69
2023/08/29 10:33:13;;;;;;;3.15;1.50;;;18.40;99.90;;;;;;5027930;28;20040;-69
2023/08/29 10:35:39;;;;;;;2.80;1.58;;;18.40;99.90;;;;;;5031576;28;20106;-69
2023/08/29 10:38:15;;;;;;;2.45;1.50;;;18.40;99.90;;;;;;5049615;28;20136;-69
2023/08/29 10:40:42;;;;;;;3.72;1.50;;;18.50;99.90;;;;;;5031719;28;20099;-70
2023/08/29 10:43:19;;;;;;;2.38;1.40;;;18.60;99.90;;;;;;5015125;28;20435;-70
2023/08/29 10:45:56;;;;;;;2.22;1.30;;;18.70;99.90;;;;;;5027161;28;20135;-70
2023/08/29 10:48:42;;;;;;;;;;;18.80;99.90;;;;;;5030713;28;20136;-70
2023/08/29 10:51:08;;;;;;;2.35;1.30;;;18.90;99.90;;;;;;5013973;28;19925;-70
2023/08/29 10:53:43;;;;;;;3.80;2.05;;;19.00;99.90;;;;;;5028235;28;20096;-70
2023/08/29 10:56:09;;;;;;;2.97;1.63;;;19.00;99.90;;;;;;5032988;28;20063;-70
2023/08/29 10:58:42;;;;;;;2.75;1.52;;;19.10;99.90;;;;;;5031352;28;20037;-70
2023/08/29 11:01:28;;;;;;;4.47;1.45;;;19.10;99.90;;;;;;5030839;28;20068;-70
2023/08/29 11:03:55;;;;;;;2.03;0.93;;;19.20;99.90;;;;;;5026477;28;20475;-70
2023/08/29 11:06:26;;;;;;;4.65;1.25;;;19.30;99.90;;;;;;5048405;28;20128;-70
2023/08/29 11:09:20;;;;;;;1.73;1.00;;;19.30;99.90;;;;;;5032258;28;20040;-70
2023/08/29 11:12:16;;;;;;;2.90;1.40;;;19.30;99.90;;;;;;5045005;28;20067;-70
2023/08/29 11:14:56;;;;;;;2.17;1.40;;;19.30;99.90;;;;;;5025213;28;20040;-70
2023/08/29 11:17:23;;;;;;;3.10;2.17;;;19.40;99.90;;;;;;5046632;28;20518;-70
2023/08/29 11:20:01;;;;;;;3.20;1.65;;;19.40;99.90;;;;;;5032417;28;20037;-70
2023/08/29 11:22:29;;;;;;;2.80;1.50;;;19.50;99.90;;;;;;5012432;28;20043;-70
2023/08/29 11:24:55;;;;;;;2.28;1.65;;;19.50;99.90;;;;;;5030899;28;20040;-70
2023/08/29 11:27:25;;;;;;;3.75;1.90;;;19.60;99.90;;;;;;5048285;28;20048;-71
2023/08/29 11:29:55;;;;;;;5.03;2.10;;;19.70;99.90;;;;;;5032775;28;20048;-70
2023/08/29 11:32:21;;;;;;;2.35;1.75;;;19.70;99.90;;;;;;5030960;28;20044;-70
2023/08/29 11:34:53;;;;;;;;;;;19.80;99.90;;;;;;5035397;28;20037;-70
2023/08/29 11:37:21;;;;;;;3.17;1.23;;;19.80;99.90;;;;;;5049545;28;20003;-70
2023/08/29 11:39:53;;;;;;;1.63;1.00;;;19.80;99.90;;;;;;5037014;28;20049;-71
2023/08/29 11:42:20;;;;;;;3.03;1.27;;;19.80;99.90;;;;;;5048880;28;20350;-71
2023/08/29 11:44:47;;;;;;;3.75;1.50;;;19.90;99.90;;;;;;5054659;28;20079;-70
2023/08/29 11:47:14;;;;;;;2.85;1.98;;;20.00;99.90;;;;;;5030970;28;20040;-70
2023/08/29 11:49:41;;;;;;;2.63;1.60;;;20.10;99.90;;;;;;5030783;28;20056;-70
2023/08/29 11:52:07;;;;;;;2.22;1.63;;;20.10;99.90;;;;;;5050418;28;20041;-70
2023/08/29 11:54:45;;;;;;;;;;;20.20;99.90;;;;;;5048967;28;20044;-70
2023/08/29 11:57:11;;;;;;;;;;;20.20;99.90;;;;;;5047450;28;19935;-70
2023/08/29 11:59:42;;;;;;;2.80;1.60;;;20.20;99.90;;;;;;5034533;28;19916;-70
2023/08/29 12:02:10;;;;;;;4.25;1.52;;;20.20;99.90;;;;;;5030254;28;20140;-69
2023/08/29 12:04:44;;;;;;;2.83;1.13;;;20.20;99.90;;;;;;5048941;28;20033;-69
2023/08/29 12:07:11;;;;;;;2.33;1.20;;;20.20;99.90;;;;;;5031814;28;20165;-69
2023/08/29 12:09:38;;;;;;;2.13;1.23;;;20.10;99.90;;;;;;5029042;28;20052;-70
2023/08/29 12:12:06;;;;;;;1.50;0.93;;;20.10;99.90;;;;;;5028221;28;20037;-70
2023/08/29 12:14:49;;;;;;;3.50;0.80;;;20.20;99.90;;;;;;5046902;28;20044;-69
2023/08/29 12:17:14;;;;;;;2.30;1.10;;;20.20;99.90;;;;;;5050036;28;20501;-70
2023/08/29 12:19:40;;;;;;;2.15;1.00;;;20.30;99.90;;;;;;5030372;28;20029;-70
2023/08/29 12:22:07;;;;;;;1.65;0.82;;;20.40;99.90;;;;;;5031143;28;20037;-70
2023/08/29 12:24:32;;;;;;;2.03;1.08;;;20.50;99.90;;;;;;5048069;28;20048;-70
2023/08/29 12:26:59;;;;;;;3.40;1.08;;;20.70;99.90;;;;;;5012868;28;20045;-70
2023/08/29 12:29:25;;;;;;;1.73;0.82;;;20.80;99.90;;;;;;5032217;28;20521;-70
2023/08/29 12:31:50;;;;;;;3.00;1.20;;;20.90;99.90;;;;;;5025531;28;20127;-70
2023/08/29 12:34:16;;;;;;;2.53;0.93;;;21.00;99.90;;;;;;5032064;28;20123;-70
2023/08/29 12:36:42;;;;;;;1.73;0.90;;;21.00;99.90;;;;;;5029261;28;20037;-70
2023/08/29 12:39:08;;;;;;;2.67;1.05;;;21.10;99.90;;;;;;5030450;28;21215;-70
2023/08/29 12:41:36;;;;;;;1.98;1.17;;;21.30;99.90;;;;;;5031039;28;20135;-70
2023/08/29 12:44:03;;;;;;;2.20;1.23;;;21.40;99.90;;;;;;5047045;28;20053;-70
2023/08/29 12:46:30;;;;;;;3.05;1.20;;;21.40;99.90;;;;;;5051077;28;20076;-70
2023/08/29 12:48:56;;;;;;;3.03;1.10;;;21.30;99.90;;;;;;5048657;28;20033;-70
2023/08/29 12:51:22;;;;;;;3.53;1.00;;;21.20;99.90;;;;;;5033238;28;20112;-70